Topeka, KS (66611)

01:46 PM CDT die 24o October, anno 2014 (GMT -0500)
South Central Topeka | Change Station
CLOSE
Current Station
Personal Weather Stations
Location: Topeka, KS
Elevation: 946 ft
Nearby Weather Stations

Elev 946 ft 39.03 °N, 95.71 °W | Updated 4 seconds ago

Serena
Serena
74.8 °F
Feels Like 76 °F
N
1.4
Ventus Variabilis Ventus from Magis Auster quam Zephyrus
Gusts 2.3 mph

Hodie
High -- | Low -- °F
--% Chance of Precip.
Yesterday
High -- | Low -- °F
Precip. -- in
7:41 AM 6:31 PM
New, 1% visible
Pressio 30.00 in
Visibilitas 10.0 milia passuum
Clouds Serena
Index Caloris 76 °F
Frigus in quo Ros apparet 66 °F
Umor 73%
Rainfall 0.00 in
Snow Depth Not available.
UV 5 out of 12
Pollen 3.40 out of 12
Air Quality Not available.
Flu Activity No Activity
METAR KFOE 241753Z 21012KT 10SM CLR 22/17 A3001 RMK AO2 SLP157 T02220167 10222 20139 58006

More Conditions Fewer Conditions

Pressio 30.00 in
Visibilitas 10.0 milia passuum
Clouds Serena
Index Caloris 76 °F
Frigus in quo Ros apparet 66 °F
Umor 73%
Rainfall 0.00 in
Snow Depth Not available.
UV 5 out of 12
Pollen 3.40 out of 12
Air Quality Not available.
Flu Activity No Activity
METAR KFOE 241753Z 21012KT 10SM CLR 22/17 A3001 RMK AO2 SLP157 T02220167 10222 20139 58006

More Conditions Fewer Conditions

10-Day Weather Forecast

Almanac

Astronomy

Oct. 24, 2014 Rise Set
Actual Time 7:41 AM CDT 6:31 PM CDT
Civil Twilight 7:14 AM CDT 6:58 PM CDT
Nautical Twilight 6:43 AM CDT 7:30 PM CDT
Astronomical Twilight 6:12 AM CDT 8:01 PM CDT
Moon 8:21 AM CDT 7:12 PM CDT
Length Of Visible Light 11h 44m
Length of Day
10h 50m
Tomorrow will be 2m 20s shorter.
New, 1% of the Moon is Illuminated
Hodie
New
Oct 30
First Quarter
Nov 6
Full
Nov 14
Last Quarter
Nov 22
New

Today's Extremes

State Highs State Lows

Community

WunderPhotos

Upload Photos

1,764,634 photos uploaded!

Nearby

Snow Depth

Station Depth Elevation
No new snow has been reported.

Earthquake Activity

City Distance Mag. Time & Date
No recent earthquake activity has been reported nearby.
Minimum magnitude displayed is 2.5.

Coastal Water Temperatures

Locus Calor
No Stations Reporting

Nearby Weather Stations